Time;durP1;ratioP1;P1;durP2;ratioP2;P2;SDS_P1;SDS_P2;PMS_P1;PMS_P2;Temp;Humidity;BMP_temperature;BMP_pressure;BME280_temperature;BME280_humidity;BME280_pressure;Samples;Min_cycle;Max_cycle;Signal;HPM_P1;HPM_P2
2022/12/27 00:02:20;;;;;;;0.00;0.00;;;3.90;99.90;;;;;;5040126;28;20079;-87
2022/12/27 00:05:00;;;;;;;0.30;0.30;;;4.20;99.90;;;;;;5039899;28;20052;-87
2022/12/27 00:07:30;;;;;;;0.43;0.25;;;4.20;99.90;;;;;;5040723;28;20052;-88
2022/12/27 00:09:57;;;;;;;0.00;0.00;;;3.90;99.90;;;;;;5039242;28;20057;-88
2022/12/27 00:12:23;;;;;;;0.00;0.00;;;3.90;99.90;;;;;;5040456;28;20049;-88
2022/12/27 00:14:58;;;;;;;0.00;0.00;;;3.90;99.90;;;;;;5040171;28;20401;-87
2022/12/27 00:17:29;;;;;;;0.08;0.03;;;4.40;99.90;;;;;;5040546;28;20120;-87
2022/12/27 00:19:58;;;;;;;0.00;0.00;;;3.90;99.90;;;;;;5039676;28;20077;-87
2022/12/27 00:22:29;;;;;;;0.00;0.00;;;3.90;99.90;;;;;;5039854;28;20063;-88
2022/12/27 00:24:55;;;;;;;0.00;0.00;;;3.90;99.90;;;;;;5056684;28;20045;-87
2022/12/27 00:27:23;;;;;;;0.00;0.00;;;3.90;99.90;;;;;;5040297;28;20051;-88
2022/12/27 00:29:52;;;;;;;0.00;0.00;;;3.80;99.90;;;;;;5023408;28;20128;-88
2022/12/27 00:32:20;;;;;;;0.00;0.00;;;4.00;99.90;;;;;;5056743;28;20059;-88
2022/12/27 00:35:00;;;;;;;0.30;0.10;;;3.90;99.90;;;;;;5041217;28;20432;-87
2022/12/27 00:37:29;;;;;;;0.00;0.00;;;3.80;99.90;;;;;;5039593;28;20049;-88
2022/12/27 00:40:16;;;;;;;0.00;0.00;;;3.90;99.90;;;;;;5039959;28;20099;-87
2022/12/27 00:42:44;;;;;;;0.00;0.00;;;3.80;99.90;;;;;;5039517;28;20458;-88
2022/12/27 00:45:17;;;;;;;0.00;0.00;;;4.00;99.90;;;;;;5039420;28;20056;-87
2022/12/27 00:47:50;;;;;;;0.00;0.00;;;3.80;99.90;;;;;;5039124;28;20045;-87
2022/12/27 00:50:25;;;;;;;0.00;0.00;;;3.80;99.90;;;;;;5024153;28;20048;-88
2022/12/27 00:52:51;;;;;;;0.00;0.00;;;3.70;99.90;;;;;;5040064;28;20052;-87
2022/12/27 00:55:17;;;;;;;0.13;0.10;;;3.70;99.90;;;;;;5039421;28;20053;-87
2022/12/27 00:57:50;;;;;;;0.00;0.00;;;3.70;99.90;;;;;;5022879;28;20049;-87
2022/12/27 01:00:21;;;;;;;0.15;0.05;;;3.70;99.90;;;;;;5056120;28;20393;-87
2022/12/27 01:02:52;;;;;;;0.00;0.00;;;3.70;99.90;;;;;;5039422;28;20413;-87
2022/12/27 01:05:21;;;;;;;1.75;1.65;;;3.70;99.90;;;;;;5039881;28;20131;-87
2022/12/27 01:07:47;;;;;;;0.10;0.10;;;3.70;99.90;;;;;;5038745;28;20045;-87
2022/12/27 01:10:19;;;;;;;0.00;0.00;;;3.70;99.90;;;;;;5055060;28;20049;-88
2022/12/27 01:12:47;;;;;;;1.75;0.10;;;3.70;99.90;;;;;;5055949;28;20049;-87
2022/12/27 01:15:18;;;;;;;0.10;0.10;;;3.70;99.90;;;;;;5055713;28;20500;-87
2022/12/27 01:17:54;;;;;;;;;;;;;;;;;;;;;
2022/12/27 01:20:22;;;;;;;0.00;0.00;;;3.70;99.90;;;;;;5055905;28;20053;-87
2022/12/27 01:23:13;;;;;;;1.90;0.85;;;3.70;99.90;;;;;;5037627;28;20087;-87
2022/12/27 01:25:39;;;;;;;0.00;0.00;;;3.70;99.90;;;;;;5038989;28;20045;-87
2022/12/27 01:28:11;;;;;;;3.92;0.80;;;3.70;99.90;;;;;;5021994;28;20122;-87
2022/12/27 01:30:40;;;;;;;;;;;3.70;99.90;;;;;;5039881;28;20045;-87
2022/12/27 01:33:05;;;;;;;0.00;0.00;;;3.70;99.90;;;;;;5038278;28;19928;-87
2022/12/27 01:35:40;;;;;;;0.10;0.10;;;3.70;99.90;;;;;;5054679;28;20565;-87
2022/12/27 01:38:11;;;;;;;0.28;0.25;;;3.70;99.90;;;;;;5039058;28;20055;-87
2022/12/27 01:40:45;;;;;;;0.00;0.00;;;3.70;99.90;;;;;;5054905;28;20045;-87
2022/12/27 01:43:19;;;;;;;0.00;0.00;;;4.30;99.90;;;;;;5022264;28;20056;-87
2022/12/27 01:45:49;;;;;;;0.00;0.00;;;3.70;99.90;;;;;;5038006;28;20060;-87
2022/12/27 01:48:30;;;;;;;0.00;0.00;;;4.00;99.90;;;;;;5037969;28;20044;-87
2022/12/27 01:51:18;;;;;;;0.00;0.00;;;4.30;99.90;;;;;;5038046;28;20041;-87
2022/12/27 01:53:49;;;;;;;0.08;0.08;;;3.60;99.90;;;;;;5037631;28;20144;-87
2022/12/27 01:56:34;;;;;;;0.00;0.00;;;3.60;99.90;;;;;;5054436;28;20091;-87
2022/12/27 01:59:10;;;;;;;0.63;0.63;;;3.70;99.90;;;;;;5022557;28;20052;-87
2022/12/27 02:01:41;;;;;;;0.00;0.00;;;3.60;99.90;;;;;;5022119;28;20503;-88
2022/12/27 02:04:19;;;;;;;0.38;0.30;;;3.70;99.90;;;;;;5037810;28;20048;-87
2022/12/27 02:06:58;;;;;;;0.10;0.10;;;3.50;99.90;;;;;;5054492;28;20091;-87
2022/12/27 02:09:37;;;;;;;14.80;0.80;;;3.60;99.90;;;;;;5022309;28;20121;-87
2022/12/27 02:12:20;;;;;;;0.00;0.00;;;3.50;99.90;;;;;;5036985;28;20554;-87
2022/12/27 02:14:51;;;;;;;0.10;0.10;;;3.60;99.90;;;;;;5021773;28;20052;-87
2022/12/27 02:17:31;;;;;;;0.93;0.32;;;3.80;99.90;;;;;;5021336;28;20041;-87
2022/12/27 02:20:03;;;;;;;0.22;0.22;;;3.90;99.90;;;;;;5037279;28;20045;-87
2022/12/27 02:26:12;;;;;;;0.00;0.00;;;3.60;99.90;;;;;;5054457;28;20029;-87
2022/12/27 02:28:58;;;;;;;0.00;0.00;;;3.60;99.90;;;;;;5037542;28;20059;-87
2022/12/27 02:31:51;;;;;;;0.55;0.40;;;3.60;99.90;;;;;;5038070;28;20112;-88
2022/12/27 02:34:32;;;;;;;0.00;0.00;;;3.60;99.90;;;;;;5037848;28;20439;-87
2022/12/27 02:37:08;;;;;;;0.43;0.10;;;3.70;99.90;;;;;;5038465;28;20057;-87
2022/12/27 02:39:48;;;;;;;0.00;0.00;;;3.60;99.90;;;;;;5038149;28;20771;-87
2022/12/27 02:54:31;;;;;;;0.00;0.00;;;3.60;99.90;;;;;;5032238;28;20139;-87
2022/12/27 02:57:24;;;;;;;0.00;0.00;;;3.60;99.90;;;;;;5023470;28;20057;-87
2022/12/27 03:03:28;;;;;;;0.00;0.00;;;3.60;99.90;;;;;;5054864;28;20045;-87
2022/12/27 03:09:18;;;;;;;0.10;0.05;;;3.60;99.90;;;;;;5053568;28;20045;-87
2022/12/27 03:17:44;;;;;;;0.00;0.00;;;4.20;99.90;;;;;;5054385;28;20056;-87
2022/12/27 03:25:55;;;;;;;0.00;0.00;;;3.60;99.90;;;;;;5060648;28;20064;-87
2022/12/27 03:34:34;;;;;;;0.00;0.00;;;3.70;99.90;;;;;;5054011;28;20100;-87
2022/12/27 03:40:33;;;;;;;0.00;0.00;;;3.70;99.90;;;;;;5052390;28;20044;-87
2022/12/27 03:43:12;;;;;;;0.00;0.00;;;3.70;99.90;;;;;;5036990;28;20052;-87
2022/12/27 03:48:58;;;;;;;0.55;0.22;;;3.70;99.90;;;;;;5053553;28;20167;-87
2022/12/27 03:51:29;;;;;;;0.00;0.00;;;3.90;99.90;;;;;;5037240;28;20060;-87
2022/12/27 03:54:05;;;;;;;1.00;0.85;;;4.00;99.90;;;;;;5053168;28;20052;-87
2022/12/27 03:56:33;;;;;;;0.00;0.00;;;3.80;99.90;;;;;;5036586;28;20144;-87
2022/12/27 03:59:03;;;;;;;0.00;0.00;;;4.00;99.90;;;;;;5036587;28;20048;-87
2022/12/27 04:01:32;;;;;;;0.00;0.00;;;3.90;99.90;;;;;;5037271;28;20397;-87
2022/12/27 04:03:58;;;;;;;0.00;0.00;;;3.90;99.90;;;;;;5036304;28;20053;-86
2022/12/27 04:06:26;;;;;;;0.00;0.00;;;3.90;99.90;;;;;;5020139;28;20064;-87
2022/12/27 04:36:21;;;;;;;0.00;0.00;;;4.30;99.90;;;;;;5056280;28;20152;-87
2022/12/27 04:38:50;;;;;;;0.00;0.00;;;4.30;99.90;;;;;;5040542;28;20476;-87
2022/12/27 04:55:27;;;;;;;0.00;0.00;;;4.60;99.90;;;;;;5055648;28;20435;-87
2022/12/27 04:57:56;;;;;;;0.00;0.00;;;4.10;99.90;;;;;;5044608;28;20064;-87
2022/12/27 05:03:18;;;;;;;0.00;0.00;;;4.10;99.90;;;;;;5055814;28;20044;-86
2022/12/27 05:05:45;;;;;;;0.00;0.00;;;4.00;99.90;;;;;;5039296;28;20473;-87
2022/12/27 05:14:00;;;;;;;0.00;0.00;;;4.30;99.90;;;;;;5054975;28;20411;-87
2022/12/27 05:16:36;;;;;;;0.00;0.00;;;4.30;99.90;;;;;;5039306;28;20157;-87
2022/12/27 05:19:08;;;;;;;0.00;0.00;;;3.80;99.90;;;;;;5038900;28;20091;-87
2022/12/27 05:21:39;;;;;;;0.00;0.00;;;3.90;99.90;;;;;;5055631;28;20045;-87
2022/12/27 05:26:50;;;;;;;0.00;0.00;;;3.90;99.90;;;;;;5054913;28;20143;-87
2022/12/27 05:29:34;;;;;;;0.20;0.20;;;4.20;99.90;;;;;;5038677;28;20124;-87
2022/12/27 05:32:02;;;;;;;0.00;0.00;;;4.00;99.90;;;;;;5038811;28;20059;-86
2022/12/27 05:34:31;;;;;;;0.13;0.13;;;4.00;99.90;;;;;;5021414;28;20098;-87
2022/12/27 05:36:57;;;;;;;0.03;0.00;;;4.00;99.90;;;;;;5037832;28;20135;-87
2022/12/27 05:39:22;;;;;;;0.10;0.10;;;3.90;99.90;;;;;;5054980;28;20516;-87
2022/12/27 05:41:48;;;;;;;0.00;0.00;;;3.90;99.90;;;;;;5037956;28;20045;-86
2022/12/27 05:44:16;;;;;;;0.00;0.00;;;3.90;99.90;;;;;;5038329;28;20091;-86
2022/12/27 05:46:42;;;;;;;0.45;0.00;;;3.90;99.90;;;;;;5038062;28;20044;-87
2022/12/27 05:49:10;;;;;;;0.40;0.10;;;3.90;99.90;;;;;;5038045;28;20166;-87
2022/12/27 05:51:36;;;;;;;0.00;0.00;;;3.90;99.90;;;;;;5037884;28;20052;-87
2022/12/27 05:54:04;;;;;;;0.00;0.00;;;4.30;99.90;;;;;;5038116;28;20052;-87
2022/12/27 05:56:38;;;;;;;0.00;0.00;;;4.00;99.90;;;;;;5038659;28;20045;-87
2022/12/27 05:59:06;;;;;;;0.10;0.10;;;4.00;99.90;;;;;;5054957;28;20041;-87
2022/12/27 06:01:36;;;;;;;0.00;0.00;;;4.00;99.90;;;;;;5037979;28;20049;-86
2022/12/27 06:04:04;;;;;;;0.00;0.00;;;4.00;99.90;;;;;;5054521;28;20397;-86
2022/12/27 06:06:44;;;;;;;0.00;0.00;;;4.10;99.90;;;;;;5038120;28;20073;-87
2022/12/27 06:09:10;;;;;;;0.00;0.00;;;4.60;99.90;;;;;;5038046;28;20132;-86
2022/12/27 06:11:41;;;;;;;0.00;0.00;;;4.20;99.90;;;;;;5037210;28;20135;-87
2022/12/27 06:14:07;;;;;;;0.43;0.32;;;4.20;99.90;;;;;;5037773;28;20041;-86
2022/12/27 06:16:35;;;;;;;0.05;0.05;;;4.20;99.90;;;;;;5037740;28;20056;-86
2022/12/27 06:19:01;;;;;;;0.05;0.03;;;4.30;99.90;;;;;;5037824;28;20085;-87
2022/12/27 06:21:30;;;;;;;0.00;0.00;;;4.20;99.90;;;;;;5037772;28;20061;-86
2022/12/27 06:24:06;;;;;;;;;;;;;;;;;;;;;
2022/12/27 06:26:35;;;;;;;0.00;0.00;;;4.30;99.90;;;;;;5054351;28;20044;-87
2022/12/27 06:29:18;;;;;;;0.98;0.10;;;4.20;99.90;;;;;;5037820;28;20049;-88
2022/12/27 06:31:48;;;;;;;0.00;0.00;;;4.20;99.90;;;;;;5021527;28;20110;-87
2022/12/27 06:34:18;;;;;;;0.00;0.00;;;4.20;99.90;;;;;;5038042;28;20053;-87
2022/12/27 06:36:49;;;;;;;0.00;0.00;;;4.20;99.90;;;;;;5038133;28;20049;-87
2022/12/27 06:39:31;;;;;;;0.10;0.10;;;4.50;99.90;;;;;;5036550;28;20048;-87
2022/12/27 06:42:00;;;;;;;0.00;0.00;;;4.20;99.90;;;;;;5020407;28;20110;-87
2022/12/27 06:44:26;;;;;;;0.00;0.00;;;4.70;99.90;;;;;;5036520;28;20075;-87
2022/12/27 06:46:54;;;;;;;4.20;0.22;;;4.30;99.90;;;;;;5036719;28;20044;-87
2022/12/27 06:49:23;;;;;;;0.30;0.30;;;4.40;99.90;;;;;;5037135;28;20094;-87
2022/12/27 06:51:51;;;;;;;0.00;0.00;;;4.20;99.90;;;;;;5037176;28;20055;-87
2022/12/27 06:54:19;;;;;;;1.27;0.60;;;4.20;99.90;;;;;;5037712;28;20048;-86
2022/12/27 06:56:45;;;;;;;0.00;0.00;;;4.20;99.90;;;;;;5036920;28;20048;-84
2022/12/27 06:59:11;;;;;;;0.10;0.10;;;4.70;99.90;;;;;;5036880;28;20052;-84
2022/12/27 07:01:37;;;;;;;4.07;1.45;;;4.30;99.90;;;;;;5036863;28;20085;-84
2022/12/27 07:04:02;;;;;;;0.00;0.00;;;4.30;99.90;;;;;;5040162;28;20054;-84
2022/12/27 07:06:29;;;;;;;0.00;0.00;;;4.30;99.90;;;;;;5026810;28;20049;-84
2022/12/27 07:09:00;;;;;;;0.00;0.00;;;4.30;99.90;;;;;;5036989;28;20374;-85
2022/12/27 07:11:26;;;;;;;0.00;0.00;;;4.30;99.90;;;;;;5036027;28;20056;-85
2022/12/27 07:13:56;;;;;;;0.47;0.08;;;4.30;99.90;;;;;;5036632;28;20084;-85
2022/12/27 07:16:24;;;;;;;0.00;0.00;;;4.20;99.90;;;;;;5053687;28;20098;-85
2022/12/27 07:18:54;;;;;;;0.70;0.70;;;4.30;99.90;;;;;;5036617;28;20406;-85
2022/12/27 07:21:24;;;;;;;0.40;0.40;;;4.10;99.90;;;;;;5036192;28;20087;-84
2022/12/27 07:23:50;;;;;;;0.00;0.00;;;4.00;99.90;;;;;;5053406;28;20053;-85
2022/12/27 07:26:22;;;;;;;0.10;0.08;;;4.00;99.90;;;;;;5036563;28;20045;-85
2022/12/27 07:28:51;;;;;;;0.20;0.20;;;4.10;99.90;;;;;;5036560;28;20053;-86
2022/12/27 07:31:25;;;;;;;0.17;0.00;;;4.00;99.90;;;;;;5036586;28;20052;-86
2022/12/27 07:33:53;;;;;;;0.00;0.00;;;3.80;99.90;;;;;;5053328;28;20041;-86
2022/12/27 07:36:27;;;;;;;0.00;0.00;;;4.00;99.90;;;;;;5053490;28;20041;-87
2022/12/27 07:42:29;;;;;;;;;;;;;;;;;;;;;
2022/12/27 07:45:04;;;;;;;0.20;0.10;;;4.10;99.90;;;;;;5053948;28;20057;-86
2022/12/27 07:47:39;;;;;;;0.38;0.25;;;4.20;99.90;;;;;;5020645;28;20143;-86
2022/12/27 07:50:06;;;;;;;0.00;0.00;;;4.10;99.90;;;;;;5003901;28;20045;-86
2022/12/27 07:52:31;;;;;;;0.00;0.00;;;4.20;99.90;;;;;;5038599;28;20489;-86
2022/12/27 07:54:59;;;;;;;0.00;0.00;;;4.20;99.90;;;;;;5023815;28;20106;-86
2022/12/27 07:57:28;;;;;;;1.25;0.30;;;4.70;99.90;;;;;;5057175;28;20044;-85
2022/12/27 07:59:54;;;;;;;0.00;0.00;;;4.20;99.90;;;;;;5039431;28;20045;-86
2022/12/27 08:02:22;;;;;;;0.00;0.00;;;4.20;99.90;;;;;;5039170;28;20452;-85
2022/12/27 08:04:54;;;;;;;0.05;0.05;;;5.10;99.90;;;;;;5039496;28;20060;-86
2022/12/27 08:07:23;;;;;;;0.00;0.00;;;4.20;99.90;;;;;;5057159;28;20041;-87
2022/12/27 08:09:59;;;;;;;0.08;0.08;;;4.50;99.90;;;;;;5039596;28;20049;-87
2022/12/27 08:12:32;;;;;;;0.20;0.20;;;4.20;99.90;;;;;;5024784;28;20056;-85
2022/12/27 08:14:58;;;;;;;0.00;0.00;;;4.30;99.90;;;;;;5039198;28;20048;-86
2022/12/27 08:17:27;;;;;;;1.55;0.22;;;4.30;99.90;;;;;;5039695;28;20054;-84
2022/12/27 08:23:03;;;;;;;0.38;0.20;;;4.30;99.90;;;;;;5045202;28;20186;-92
2022/12/27 08:25:34;;;;;;;0.00;0.00;;;4.30;99.90;;;;;;5025709;28;20049;-91
2022/12/27 08:28:18;;;;;;;;;;;;;;;;;;;;;
2022/12/27 08:30:46;;;;;;;4.90;0.57;;;4.20;99.90;;;;;;5055461;28;20041;-89
2022/12/27 08:33:13;;;;;;;0.00;0.00;;;4.60;99.90;;;;;;5040985;28;20079;-88
2022/12/27 08:35:43;;;;;;;3.30;0.00;;;4.20;99.90;;;;;;5056965;28;20045;-91
2022/12/27 08:38:36;;;;;;;0.22;0.13;;;4.20;99.90;;;;;;5040809;28;20114;-91
2022/12/27 08:41:02;;;;;;;3.63;1.02;;;4.20;99.90;;;;;;5024795;28;20490;-86
2022/12/27 08:43:32;;;;;;;0.00;0.00;;;4.20;99.90;;;;;;5023476;28;20051;-87
2022/12/27 08:46:24;;;;;;;;;;;;;;;;;;;;;
2022/12/27 08:48:55;;;;;;;0.00;0.00;;;4.50;99.90;;;;;;5056365;28;20489;-91
2022/12/27 08:51:27;;;;;;;0.10;0.10;;;4.40;99.90;;;;;;5040057;28;20055;-94
2022/12/27 08:54:02;;;;;;;0.00;0.00;;;4.50;99.90;;;;;;5041054;28;20040;-88
2022/12/27 08:56:36;;;;;;;0.00;0.00;;;4.70;99.90;;;;;;5040218;28;20045;-89
2022/12/27 08:59:32;;;;;;;0.00;0.00;;;5.00;99.90;;;;;;5039306;28;20132;-89
2022/12/27 09:02:15;;;;;;;;;;;;;;;;;;;;;
2022/12/27 09:05:35;;;;;;;;;;;;;;;;;;;;;
2022/12/27 09:08:49;;;;;;;;;;;;;;;;;;;;;
2022/12/27 09:11:52;;;;;;;;;;;;;;;;;;;;;
2022/12/27 09:14:51;;;;;;;;;;;;;;;;;;;;;
2022/12/27 09:17:30;;;;;;;0.00;0.00;;;4.90;99.90;;;;;;5054451;28;20061;-90
2022/12/27 09:23:50;;;;;;;;;;;;;;;;;;;;;
2022/12/27 09:29:40;;;;;;;;;;;;;;;;;;;;;
2022/12/27 09:36:43;;;;;;;;;;;;;;;;;;;;;
2022/12/27 09:39:55;;;;;;;0.00;0.00;;;7.50;99.90;;;;;;4998925;28;20060;-90
2022/12/27 09:43:11;;;;;;;;;;;;;;;;;;;;;
2022/12/27 09:46:32;;;;;;;;;;;;;;;;;;;;;
2022/12/27 09:50:11;;;;;;;;;;;;;;;;;;;;;
2022/12/27 09:53:42;;;;;;;0.00;0.00;;;9.20;99.90;;;;;;5020896;28;20064;-92
2022/12/27 09:56:37;;;;;;;;;;;;;;;;;;;;;
2022/12/27 09:59:57;;;;;;;0.00;0.00;;;10.20;99.90;;;;;;5055987;28;20048;-90
2022/12/27 10:03:10;;;;;;;;;;;;;;;;;;;;;
2022/12/27 10:05:50;;;;;;;0.00;0.00;;;9.10;99.90;;;;;;5055025;28;20051;-89
2022/12/27 10:08:42;;;;;;;;;;;;;;;;;;;;;
2022/12/27 10:11:58;;;;;;;0.00;0.00;;;9.30;99.90;;;;;;5054474;28;20139;-91
2022/12/27 10:39:47;;;;;;;;;;;;;;;;;;;;;
2022/12/27 10:42:41;;;;;;;;;;;;;;;;;;;;;
2022/12/27 10:45:38;;;;;;;0.82;0.45;;;11.60;99.90;;;;;;4980289;28;20054;-95
2022/12/27 10:48:26;;;;;;;0.00;0.00;;;11.70;99.90;;;;;;4963485;28;20050;-89
2022/12/27 10:50:56;;;;;;;0.10;0.10;;;11.70;99.90;;;;;;4963505;28;20483;-91
2022/12/27 10:53:47;;;;;;;0.00;0.00;;;11.80;99.90;;;;;;4963022;28;20042;-91
2022/12/27 10:56:42;;;;;;;;;;;;;;;;;;;;;
2022/12/27 10:59:26;;;;;;;0.00;0.00;;;11.90;99.90;;;;;;4980801;28;20108;-93
2022/12/27 11:02:24;;;;;;;0.00;0.00;;;11.70;99.90;;;;;;4964644;28;20046;-95
2022/12/27 11:05:04;;;;;;;0.00;0.00;;;11.10;99.90;;;;;;4966083;28;20554;-92
2022/12/27 11:07:38;;;;;;;0.00;0.00;;;10.60;99.90;;;;;;4979642;28;20042;-92
2022/12/27 11:10:26;;;;;;;0.00;0.00;;;10.00;99.90;;;;;;4979330;28;20042;-91
2022/12/27 11:13:03;;;;;;;0.08;0.08;;;9.60;99.90;;;;;;4968707;28;20065;-90
2022/12/27 11:15:39;;;;;;;0.00;0.00;;;9.50;99.90;;;;;;4981644;28;20479;-91
2022/12/27 11:18:30;;;;;;;;;;;;;;;;;;;;;
2022/12/27 11:21:08;;;;;;;;;;;;;;;;;;;;;
2022/12/27 11:23:51;;;;;;;;;;;;;;;;;;;;;
2022/12/27 11:27:04;;;;;;;0.00;0.00;;;11.10;99.90;;;;;;4981426;28;20084;-93
2022/12/27 11:29:50;;;;;;;0.00;0.00;;;11.60;99.90;;;;;;4955094;28;20510;-95
2022/12/27 11:32:44;;;;;;;0.10;0.08;;;11.80;99.90;;;;;;4954019;28;20061;-93
2022/12/27 11:35:28;;;;;;;0.00;0.00;;;11.50;99.90;;;;;;4981373;28;20065;-93
2022/12/27 11:38:24;;;;;;;;;;;;;;;;;;;;;
2022/12/27 11:41:39;;;;;;;0.00;0.00;;;10.60;99.90;;;;;;5002914;28;20118;-93
2022/12/27 11:44:48;;;;;;;0.00;0.00;;;10.10;99.90;;;;;;4970842;28;20085;-93
2022/12/27 11:48:09;;;;;;;0.20;0.20;;;10.20;99.90;;;;;;4977860;28;20058;-93
2022/12/27 11:51:00;;;;;;;0.20;0.10;;;10.20;99.90;;;;;;4978924;28;20051;-93
2022/12/27 11:54:10;;;;;;;;;;;;;;;;;;;;;
2022/12/27 11:56:47;;;;;;;0.00;0.00;;;9.50;99.90;;;;;;4984160;28;20053;-94
2022/12/27 11:59:41;;;;;;;0.00;0.00;;;9.10;99.90;;;;;;4968108;28;20113;-95
2022/12/27 12:12:51;;;;;;;0.00;0.00;;;8.00;99.90;;;;;;5016088;28;20045;-95
2022/12/27 12:16:02;;;;;;;;;;;;;;;;;;;;;
2022/12/27 12:19:18;;;;;;;;;;;;;;;;;;;;;
2022/12/27 12:22:31;;;;;;;0.00;0.00;;;7.70;99.90;;;;;;4984143;28;20094;-94
2022/12/27 12:25:16;;;;;;;;;;;;;;;;;;;;;
2022/12/27 12:28:48;;;;;;;1.88;0.10;;;7.50;99.90;;;;;;4987329;28;20050;-95
2022/12/27 12:31:46;;;;;;;;;;;;;;;;;;;;;
2022/12/27 12:34:49;;;;;;;;;;;;;;;;;;;;;
2022/12/27 12:38:31;;;;;;;0.00;0.00;;;7.50;99.90;;;;;;4955887;28;20093;-94
2022/12/27 12:41:35;;;;;;;0.25;0.10;;;7.40;99.90;;;;;;4924676;29;20079;-93
2022/12/27 12:44:28;;;;;;;0.00;0.00;;;7.40;99.90;;;;;;4923183;28;20062;-92
2022/12/27 12:47:29;;;;;;;0.20;0.08;;;7.30;99.90;;;;;;4969492;28;20050;-92
2022/12/27 12:50:38;;;;;;;;;;;;;;;;;;;;;
2022/12/27 12:57:26;;;;;;;0.10;0.10;;;7.20;99.90;;;;;;4960585;28;20129;-93
2022/12/27 13:00:08;;;;;;;;;;;;;;;;;;;;;
2022/12/27 13:02:48;;;;;;;0.00;0.00;;;7.30;99.90;;;;;;4982962;28;20050;-95
2022/12/27 13:05:46;;;;;;;0.20;0.10;;;7.40;99.90;;;;;;4966536;28;20053;-95
2022/12/27 13:08:33;;;;;;;0.10;0.10;;;7.40;99.90;;;;;;4977400;28;20049;-94
2022/12/27 13:11:23;;;;;;;0.20;0.00;;;7.40;99.90;;;;;;4965340;28;20109;-95
2022/12/27 13:14:56;;;;;;;;;;;;;;;;;;;;;
2022/12/27 13:18:01;;;;;;;0.43;0.25;;;7.30;99.90;;;;;;4891222;29;20048;-95
2022/12/27 13:21:05;;;;;;;0.00;0.00;;;7.30;99.90;;;;;;4883137;28;20542;-94
2022/12/27 13:24:20;;;;;;;;;;;;;;;;;;;;;
2022/12/27 13:27:40;;;;;;;0.28;0.28;;;7.40;99.90;;;;;;4963427;28;20134;-94
2022/12/27 13:30:21;;;;;;;0.03;0.03;;;7.40;99.90;;;;;;4961413;28;20502;-89
2022/12/27 13:33:18;;;;;;;0.00;0.00;;;7.10;99.90;;;;;;4964918;28;20328;-93
2022/12/27 13:36:25;;;;;;;1.23;0.45;;;7.30;99.90;;;;;;4958531;28;20089;-92
2022/12/27 13:39:15;;;;;;;0.00;0.00;;;7.30;99.90;;;;;;4977274;28;20050;-95
2022/12/27 13:42:28;;;;;;;0.00;0.00;;;7.20;99.90;;;;;;4960236;28;20051;-94
2022/12/27 13:45:33;;;;;;;2.08;0.75;;;7.20;99.90;;;;;;4960910;28;20085;-94
2022/12/27 13:48:26;;;;;;;0.00;0.00;;;7.20;99.90;;;;;;4960501;28;20046;-93
2022/12/27 13:51:18;;;;;;;0.57;0.25;;;7.10;99.90;;;;;;4960439;28;20050;-93
2022/12/27 13:53:50;;;;;;;0.47;0.47;;;7.20;99.90;;;;;;4977546;28;20133;-93
2022/12/27 13:56:57;;;;;;;0.00;0.00;;;7.20;99.90;;;;;;4960803;28;20523;-93
2022/12/27 13:59:40;;;;;;;0.52;0.45;;;7.10;99.90;;;;;;4941700;29;20062;-92
2022/12/27 14:02:33;;;;;;;0.00;0.00;;;7.10;99.90;;;;;;4943773;28;20055;-93
2022/12/27 14:05:50;;;;;;;;;;;;;;;;;;;;;
2022/12/27 14:08:40;;;;;;;0.32;0.32;;;7.00;99.90;;;;;;4977237;28;20058;-92
2022/12/27 14:11:54;;;;;;;0.30;0.20;;;7.00;99.90;;;;;;4959798;28;20043;-91
2022/12/27 14:14:35;;;;;;;0.55;0.30;;;7.00;99.90;;;;;;4975625;28;20051;-91
2022/12/27 14:17:44;;;;;;;0.30;0.20;;;7.00;99.90;;;;;;4960745;28;20046;-93
2022/12/27 14:20:18;;;;;;;0.00;0.00;;;6.90;99.90;;;;;;4976734;28;20047;-92
2022/12/27 14:26:16;;;;;;;;;;;;;;;;;;;;;
2022/12/27 14:29:23;;;;;;;;;;;;;;;;;;;;;
2022/12/27 14:32:12;;;;;;;0.20;0.10;;;6.80;99.90;;;;;;4976532;28;20043;-92
2022/12/27 14:35:22;;;;;;;0.20;0.20;;;6.80;99.90;;;;;;4941462;29;20082;-93
2022/12/27 14:38:21;;;;;;;0.10;0.08;;;6.70;99.90;;;;;;4961173;28;20058;-92
2022/12/27 14:41:14;;;;;;;0.03;0.00;;;6.70;99.90;;;;;;4959589;28;20062;-90
2022/12/27 14:44:10;;;;;;;0.90;0.32;;;6.60;99.90;;;;;;4974253;28;20051;-92
2022/12/27 14:47:16;;;;;;;0.15;0.08;;;6.60;99.90;;;;;;4959504;28;20078;-92
2022/12/27 14:50:02;;;;;;;0.77;0.20;;;6.60;99.90;;;;;;4975613;28;20043;-91
2022/12/27 14:52:46;;;;;;;0.80;0.75;;;6.50;99.90;;;;;;4975497;28;20039;-92
2022/12/27 14:55:20;;;;;;;0.43;0.32;;;6.50;99.90;;;;;;4960562;28;20181;-93
2022/12/27 14:57:55;;;;;;;0.30;0.30;;;6.50;99.90;;;;;;4961685;28;20051;-94
2022/12/27 15:00:24;;;;;;;0.32;0.32;;;6.40;99.90;;;;;;4977103;28;20782;-93
2022/12/27 15:03:00;;;;;;;0.63;0.40;;;6.40;99.90;;;;;;4961595;28;20043;-92
2022/12/27 15:05:43;;;;;;;0.30;0.10;;;6.30;99.90;;;;;;4977385;28;20047;-94
2022/12/27 15:08:25;;;;;;;2.30;0.98;;;6.30;99.90;;;;;;4971576;28;20034;-92
2022/12/27 15:11:26;;;;;;;0.75;0.10;;;6.30;99.90;;;;;;4998346;28;20027;-89
2022/12/27 15:14:14;;;;;;;0.30;0.10;;;6.30;99.90;;;;;;4960578;28;20047;-93
2022/12/27 15:16:46;;;;;;;0.10;0.10;;;6.30;99.90;;;;;;4965471;28;20110;-94
2022/12/27 15:19:59;;;;;;;0.85;0.10;;;6.30;99.90;;;;;;4960825;28;20050;-94
2022/12/27 15:23:04;;;;;;;0.15;0.08;;;6.20;99.90;;;;;;4907732;28;20146;-91
2022/12/27 15:25:36;;;;;;;0.63;0.43;;;6.20;99.90;;;;;;4945747;28;20119;-90
2022/12/27 15:28:21;;;;;;;0.68;0.10;;;6.20;99.90;;;;;;4962403;28;20064;-92
2022/12/27 15:31:24;;;;;;;0.03;0.00;;;6.10;99.90;;;;;;4943554;29;20046;-92
2022/12/27 15:34:13;;;;;;;0.55;0.30;;;6.10;99.90;;;;;;4940347;29;20134;-92
2022/12/27 15:37:00;;;;;;;0.65;0.35;;;6.10;99.90;;;;;;4941966;29;20070;-94
2022/12/27 15:39:45;;;;;;;0.10;0.10;;;6.00;99.90;;;;;;4928097;29;20142;-93
2022/12/27 15:42:46;;;;;;;0.00;0.00;;;6.00;99.90;;;;;;4941403;29;20436;-94
2022/12/27 15:45:35;;;;;;;0.00;0.00;;;6.00;99.90;;;;;;4957715;29;20111;-93
2022/12/27 15:48:51;;;;;;;11.30;0.32;;;6.00;99.90;;;;;;4940689;29;20059;-93
2022/12/27 15:51:43;;;;;;;0.10;0.10;;;6.00;99.90;;;;;;4848818;29;20041;-93
2022/12/27 15:54:40;;;;;;;0.00;0.00;;;6.00;99.90;;;;;;4850511;29;20502;-92
2022/12/27 15:57:49;;;;;;;0.80;0.40;;;5.90;99.90;;;;;;4927643;29;20083;-92
2022/12/27 16:00:23;;;;;;;0.13;0.13;;;5.90;99.90;;;;;;4926428;29;20497;-92
2022/12/27 16:03:15;;;;;;;0.05;0.00;;;5.90;99.90;;;;;;4957283;29;20043;-93
2022/12/27 16:06:03;;;;;;;0.63;0.28;;;5.90;99.90;;;;;;4938797;29;20055;-93
2022/12/27 16:08:52;;;;;;;;;;;;;;;;;;;;;
2022/12/27 16:11:57;;;;;;;0.40;0.10;;;5.90;99.90;;;;;;4956100;29;20053;-93
2022/12/27 16:14:30;;;;;;;0.00;0.00;;;5.90;99.90;;;;;;4944240;29;20047;-94
2022/12/27 16:17:35;;;;;;;;;;;;;;;;;;;;;
2022/12/27 16:20:14;;;;;;;0.17;0.05;;;5.80;99.90;;;;;;4960343;29;20047;-94
2022/12/27 16:22:58;;;;;;;;;;;;;;;;;;;;;
2022/12/27 16:25:51;;;;;;;0.00;0.00;;;5.80;99.90;;;;;;4960229;29;20058;-92
2022/12/27 16:28:27;;;;;;;0.25;0.25;;;5.90;99.90;;;;;;4960446;29;20139;-91
2022/12/27 16:31:14;;;;;;;;;;;;;;;;;;;;;
2022/12/27 16:33:48;;;;;;;0.00;0.00;;;5.90;99.90;;;;;;4960678;29;20492;-94
2022/12/27 16:36:37;;;;;;;0.10;0.10;;;5.80;99.90;;;;;;4943545;29;20059;-95
2022/12/27 16:39:51;;;;;;;0.20;0.20;;;5.90;99.90;;;;;;4944143;29;20138;-94
2022/12/27 16:42:31;;;;;;;0.00;0.00;;;5.90;99.90;;;;;;4888838;29;20048;-93
2022/12/27 16:45:31;;;;;;;0.20;0.20;;;5.80;99.90;;;;;;4908940;28;20052;-94
2022/12/27 16:48:29;;;;;;;2.78;0.28;;;5.90;99.90;;;;;;4960753;29;20152;-93
2022/12/27 16:51:15;;;;;;;0.22;0.22;;;5.90;99.90;;;;;;4959678;29;20178;-95
2022/12/27 16:54:26;;;;;;;0.08;0.00;;;5.90;99.90;;;;;;4961020;29;20409;-94
2022/12/27 16:57:37;;;;;;;0.28;0.00;;;5.90;99.90;;;;;;4963136;29;20039;-95
2022/12/27 17:00:12;;;;;;;0.00;0.00;;;5.80;99.90;;;;;;4960905;29;20047;-94
2022/12/27 17:02:46;;;;;;;0.00;0.00;;;5.70;99.90;;;;;;4961707;29;20055;-93
2022/12/27 17:05:15;;;;;;;0.10;0.05;;;5.90;99.90;;;;;;4945565;29;20256;-94
2022/12/27 17:08:02;;;;;;;;;;;;;;;;;;;;;
2022/12/27 17:10:41;;;;;;;0.20;0.20;;;5.90;99.90;;;;;;4965171;28;20047;-92
2022/12/27 17:13:56;;;;;;;;;;;;;;;;;;;;;
2022/12/27 17:16:39;;;;;;;5.05;0.30;;;6.00;99.90;;;;;;4877447;28;20053;-93
2022/12/27 17:19:33;;;;;;;0.10;0.10;;;6.00;99.90;;;;;;4948642;29;20498;-92
2022/12/27 17:22:11;;;;;;;0.70;0.45;;;6.00;99.90;;;;;;4959194;29;20051;-95
2022/12/27 17:24:44;;;;;;;0.10;0.10;;;6.00;99.90;;;;;;4958198;29;20108;-95
2022/12/27 17:27:47;;;;;;;0.03;0.03;;;6.10;99.90;;;;;;4958298;29;20047;-95
2022/12/27 17:30:43;;;;;;;;;;;;;;;;;;;;;
2022/12/27 17:33:59;;;;;;;0.38;0.03;;;6.10;99.90;;;;;;4987165;28;20043;-95
2022/12/27 17:36:48;;;;;;;0.52;0.10;;;6.10;99.90;;;;;;4967466;28;20062;-93
2022/12/27 17:39:32;;;;;;;0.20;0.10;;;6.20;99.90;;;;;;4954732;28;20571;-94
2022/12/27 17:45:20;;;;;;;0.30;0.30;;;6.00;99.90;;;;;;4959378;29;20047;-94
2022/12/27 17:48:24;;;;;;;0.00;0.00;;;6.00;99.90;;;;;;4959012;28;20047;-92
2022/12/27 17:51:19;;;;;;;0.00;0.00;;;6.10;99.90;;;;;;4952895;29;20078;-94
2022/12/27 18:00:02;;;;;;;;;;;;;;;;;;;;;
2022/12/27 18:02:52;;;;;;;;;;;;;;;;;;;;;
2022/12/27 18:05:33;;;;;;;0.80;0.20;;;6.00;99.90;;;;;;4959210;28;20043;-94
2022/12/27 18:08:06;;;;;;;0.00;0.00;;;6.00;99.90;;;;;;4946219;28;20066;-93